Time;durP1;ratioP1;P1;durP2;ratioP2;P2;SDS_P1;SDS_P2;PMS_P1;PMS_P2;Temp;Humidity;BMP_temperature;BMP_pressure;BME280_temperature;BME280_humidity;BME280_pressure;Samples;Min_cycle;Max_cycle;Signal;HPM_P1;HPM_P2
2024/02/28 00:00:30;;;;;;;21.73;12.00;;;;;;;5.25;45.77;101609.78;5038557;28;20144;-80
2024/02/28 00:02:58;;;;;;;22.80;13.15;;;;;;;5.23;46.05;101607.16;5036389;28;20063;-80
2024/02/28 00:05:26;;;;;;;23.90;13.30;;;;;;;5.21;46.13;101613.63;5037627;28;20566;-80
2024/02/28 00:07:54;;;;;;;27.90;13.57;;;;;;;5.20;46.29;101610.03;5035204;28;20033;-79
2024/02/28 00:10:22;;;;;;;23.33;12.43;;;;;;;5.17;46.05;101603.84;5039255;28;20135;-80
2024/02/28 00:12:51;;;;;;;23.80;13.30;;;;;;;5.18;46.34;101614.66;5032077;28;20299;-81
2024/02/28 00:15:19;;;;;;;23.58;12.73;;;;;;;5.17;46.35;101617.44;5036340;28;20045;-79
2024/02/28 00:17:47;;;;;;;25.40;13.38;;;;;;;5.15;46.33;101614.78;5038303;28;20045;-79
2024/02/28 00:20:15;;;;;;;24.95;13.85;;;;;;;5.11;46.17;101615.03;5056362;28;20096;-80
2024/02/28 00:22:44;;;;;;;24.27;12.93;;;;;;;5.11;46.22;101613.22;5038120;28;20048;-79
2024/02/28 00:25:13;;;;;;;22.30;12.20;;;;;;;5.11;46.19;101620.47;5055019;28;20037;-79
2024/02/28 00:27:41;;;;;;;23.90;13.30;;;;;;;5.09;46.13;101616.94;5039100;28;20041;-79
2024/02/28 00:30:11;;;;;;;23.27;12.27;;;;;;;5.10;46.59;101607.84;5030386;28;20041;-79
2024/02/28 00:32:39;;;;;;;24.75;13.45;;;;;;;5.08;46.46;101613.34;5034582;28;20424;-78
2024/02/28 00:35:08;;;;;;;26.08;13.38;;;;;;;5.09;46.37;101611.53;5035576;28;20037;-79
2024/02/28 00:37:36;;;;;;;24.85;13.07;;;;;;;5.07;46.53;101608.88;5037382;28;20057;-79
2024/02/28 00:40:05;;;;;;;25.60;15.25;;;;;;;5.06;46.78;101604.41;5036937;28;20045;-79
2024/02/28 00:42:33;;;;;;;26.42;14.25;;;;;;;5.03;46.40;101607.31;5038353;28;20833;-80
2024/02/28 00:45:01;;;;;;;22.98;13.68;;;;;;;5.03;46.48;101606.44;5053534;28;20044;-80
2024/02/28 00:47:31;;;;;;;24.98;13.40;;;;;;;5.01;46.63;101600.19;5057358;28;20041;-81
2024/02/28 00:50:02;;;;;;;23.65;14.43;;;;;;;4.99;46.17;101604.81;5055920;28;20049;-78
2024/02/28 00:52:32;;;;;;;24.42;13.82;;;;;;;4.95;46.46;101604.13;5035883;28;20044;-77
2024/02/28 00:55:00;;;;;;;25.52;14.13;;;;;;;4.93;46.54;101609.63;5051871;28;20044;-77
2024/02/28 00:57:28;;;;;;;24.42;13.75;;;;;;;4.90;46.34;101606.19;5035681;28;20068;-77
2024/02/28 00:59:56;;;;;;;24.15;13.65;;;;;;;4.87;46.23;101606.34;5045346;28;20124;-77
2024/02/28 01:02:24;;;;;;;24.63;13.50;;;;;;;4.85;46.41;101603.72;5034892;28;20503;-77
2024/02/28 01:04:53;;;;;;;25.23;13.73;;;;;;;4.83;46.37;101594.78;5031945;28;20047;-77
2024/02/28 01:07:21;;;;;;;24.25;14.23;;;;;;;4.80;46.63;101597.63;5034068;28;20060;-76
2024/02/28 01:09:49;;;;;;;24.88;13.73;;;;;;;4.78;46.37;101601.41;5025689;28;20045;-77
2024/02/28 01:12:18;;;;;;;25.10;12.68;;;;;;;4.77;46.53;101605.06;5043216;28;20037;-77
2024/02/28 01:14:45;;;;;;;25.33;13.70;;;;;;;4.75;46.69;101601.56;5036745;28;20098;-77
2024/02/28 01:17:13;;;;;;;27.10;14.45;;;;;;;4.72;46.43;101601.69;5041435;28;20041;-77
2024/02/28 01:19:41;;;;;;;23.05;13.18;;;;;;;4.71;46.68;101616.25;5028979;28;20108;-77
2024/02/28 01:22:11;;;;;;;26.05;14.23;;;;;;;4.70;46.57;101615.34;5051577;28;20041;-77
2024/02/28 01:24:39;;;;;;;22.88;13.13;;;;;;;4.67;46.65;101610.09;5052899;28;20527;-77
2024/02/28 01:27:07;;;;;;;24.75;13.50;;;;;;;4.66;46.65;101608.31;5051248;28;20041;-77
2024/02/28 01:29:35;;;;;;;24.95;14.40;;;;;;;4.66;46.83;101613.75;5042679;28;20292;-77
2024/02/28 01:32:03;;;;;;;21.80;11.90;;;;;;;4.66;46.57;101618.28;5044761;28;20451;-77
2024/02/28 01:34:31;;;;;;;23.85;12.50;;;;;;;4.65;46.67;101622.84;5033089;28;20076;-77
2024/02/28 01:36:59;;;;;;;22.42;12.73;;;;;;;4.66;46.66;101627.31;5038672;28;20454;-77
2024/02/28 01:39:28;;;;;;;21.38;11.55;;;;;;;4.68;46.88;101625.41;5039898;28;20045;-77
2024/02/28 01:41:57;;;;;;;24.95;13.25;;;;;;;4.68;46.86;101629.94;5035011;28;20080;-77
2024/02/28 01:44:25;;;;;;;24.02;13.40;;;;;;;4.68;46.82;101624.53;5034688;28;20581;-77
2024/02/28 01:46:54;;;;;;;24.35;12.93;;;;;;;4.66;46.86;101616.47;5050513;28;20053;-76
2024/02/28 01:49:23;;;;;;;25.77;13.77;;;;;;;4.68;46.93;101614.56;5036848;28;20039;-77
2024/02/28 01:51:52;;;;;;;26.30;14.27;;;;;;;4.69;46.81;101612.72;5052058;28;20045;-78
2024/02/28 01:54:20;;;;;;;26.42;14.30;;;;;;;4.69;46.87;101618.16;5034265;28;20522;-78
2024/02/28 01:56:50;;;;;;;24.27;13.98;;;;;;;4.67;46.95;101614.63;5040226;28;20132;-77
2024/02/28 01:59:19;;;;;;;25.98;14.13;;;;;;;4.66;46.69;101610.16;5038596;28;20068;-77
2024/02/28 02:01:47;;;;;;;26.58;14.00;;;;;;;4.63;46.64;101608.50;5037342;28;20123;-78
2024/02/28 02:04:15;;;;;;;26.35;14.23;;;;;;;4.62;46.70;101609.44;5055187;28;20076;-77
2024/02/28 02:06:44;;;;;;;30.08;15.00;;;;;;;4.60;46.62;101603.22;5047158;28;20133;-77
2024/02/28 02:09:13;;;;;;;26.33;14.27;;;;;;;4.58;46.68;101596.13;5062519;28;20124;-77
2024/02/28 02:11:41;;;;;;;28.60;14.43;;;;;;;4.55;46.91;101598.00;5037145;28;20083;-77
2024/02/28 02:14:11;;;;;;;31.85;16.17;;;;;;;4.55;47.12;101595.31;5036661;28;20080;-77
2024/02/28 02:16:39;;;;;;;27.60;14.25;;;;;;;4.51;46.69;101593.72;5037698;28;20483;-78
2024/02/28 02:19:10;;;;;;;29.33;15.20;;;;;;;4.51;47.15;101598.25;5036570;28;20093;-78
2024/02/28 02:21:43;;;;;;;29.75;14.23;;;;;;;4.49;47.15;101598.34;5038516;28;20574;-77
2024/02/28 02:24:13;;;;;;;29.17;14.77;;;;;;;4.47;47.04;101610.22;5037570;28;20045;-77
2024/02/28 02:26:43;;;;;;;27.25;14.15;;;;;;;4.45;47.20;101604.88;5035380;28;20516;-77
2024/02/28 02:29:11;;;;;;;30.05;14.52;;;;;;;4.43;47.13;101604.06;5028891;28;20041;-78
2024/02/28 02:31:40;;;;;;;28.23;15.25;;;;;;;4.43;47.20;101601.38;5036709;28;20039;-77
2024/02/28 02:34:08;;;;;;;28.75;13.45;;;;;;;4.40;47.22;101601.50;5028564;28;20044;-77
2024/02/28 02:36:36;;;;;;;27.58;14.55;;;;;;;4.38;47.15;101600.72;5036976;28;20178;-77
2024/02/28 02:39:04;;;;;;;26.60;14.25;;;;;;;4.39;47.37;101605.16;5035014;28;20045;-77
2024/02/28 02:41:33;;;;;;;24.35;12.93;;;;;;;4.40;47.34;101611.47;5045394;28;20095;-77
2024/02/28 02:44:01;;;;;;;26.40;14.27;;;;;;;4.40;47.38;101612.34;5036435;28;20048;-77
2024/02/28 02:46:29;;;;;;;26.25;13.18;;;;;;;4.41;47.59;101621.34;5052775;28;20068;-77
2024/02/28 02:48:57;;;;;;;27.98;14.27;;;;;;;4.41;47.59;101618.66;5056301;28;20048;-77
2024/02/28 02:51:25;;;;;;;24.95;14.32;;;;;;;4.41;47.50;101616.81;5036865;28;20049;-77
2024/02/28 02:53:53;;;;;;;24.50;13.02;;;;;;;4.42;47.56;101613.16;5045631;28;20511;-77
2024/02/28 02:56:21;;;;;;;24.70;12.85;;;;;;;4.43;47.62;101614.91;5027097;28;20045;-77
2024/02/28 02:58:51;;;;;;;27.55;13.48;;;;;;;4.46;47.79;101616.59;5033736;28;20447;-77
2024/02/28 03:01:19;;;;;;;23.00;12.52;;;;;;;4.46;47.75;101631.03;5030764;28;20119;-77
2024/02/28 03:03:48;;;;;;;25.20;13.30;;;;;;;4.48;47.98;101623.69;5037080;28;20052;-77
2024/02/28 03:06:16;;;;;;;26.48;13.43;;;;;;;4.51;47.80;101631.66;5038989;28;20068;-77
2024/02/28 03:08:44;;;;;;;24.20;13.30;;;;;;;4.52;47.64;101625.28;5045144;28;20040;-77
2024/02/28 03:11:12;;;;;;;25.58;13.07;;;;;;;4.54;47.87;101622.50;5063237;28;20059;-77
2024/02/28 03:13:41;;;;;;;22.70;12.32;;;;;;;4.55;47.86;101622.41;5028569;28;20045;-77
2024/02/28 03:16:10;;;;;;;24.23;13.30;;;;;;;4.58;47.95;101626.81;5051030;28;20041;-77
2024/02/28 03:18:38;;;;;;;21.63;12.70;;;;;;;4.60;47.91;101637.59;5071008;28;20040;-77
2024/02/28 03:21:06;;;;;;;24.63;13.88;;;;;;;4.61;48.02;101634.81;5054623;28;20068;-77
2024/02/28 03:23:36;;;;;;;26.23;13.85;;;;;;;4.64;47.91;101631.91;5042061;28;20103;-77
2024/02/28 03:26:04;;;;;;;26.30;12.98;;;;;;;4.66;48.09;101631.84;5037912;28;20523;-76
2024/02/28 03:28:32;;;;;;;27.17;14.48;;;;;;;4.67;48.09;101631.78;5036767;28;20522;-77
2024/02/28 03:31:00;;;;;;;26.10;14.27;;;;;;;4.69;48.10;101634.41;5054772;28;20504;-77
2024/02/28 03:33:32;;;;;;;29.52;15.05;;;;;;;4.73;48.03;101633.28;5056515;28;20091;-77
2024/02/28 03:36:00;;;;;;;27.67;14.07;;;;;;;4.70;48.00;101637.06;5035865;28;20049;-77
2024/02/28 03:38:28;;;;;;;30.70;16.27;;;;;;;4.73;48.11;101639.59;5037380;28;20135;-77
2024/02/28 03:40:56;;;;;;;32.17;16.45;;;;;;;4.76;48.24;101638.56;5055576;28;20045;-77
2024/02/28 03:43:24;;;;;;;32.22;17.55;;;;;;;4.77;48.01;101632.19;5036453;28;20045;-77
2024/02/28 03:45:52;;;;;;;35.63;17.90;;;;;;;4.77;48.19;101633.06;5036538;28;20478;-77
2024/02/28 03:48:20;;;;;;;36.28;17.55;;;;;;;4.79;48.36;101633.00;5036486;28;20071;-77
2024/02/28 03:50:50;;;;;;;35.63;18.20;;;;;;;4.82;48.20;101643.66;5036942;28;20048;-77
2024/02/28 03:53:18;;;;;;;35.78;18.70;;;;;;;4.82;48.39;101644.53;5046803;28;20037;-77
2024/02/28 03:55:46;;;;;;;35.40;19.05;;;;;;;4.84;48.21;101647.19;5034290;28;20140;-77
2024/02/28 03:58:14;;;;;;;36.38;18.08;;;;;;;4.85;48.33;101647.13;5054031;28;20132;-77
2024/02/28 04:00:45;;;;;;;35.20;19.35;;;;;;;4.85;48.45;101652.53;5035517;28;20049;-77
2024/02/28 04:03:14;;;;;;;34.38;18.52;;;;;;;4.87;48.32;101655.19;5062516;28;20411;-77
2024/02/28 04:05:42;;;;;;;33.25;17.05;;;;;;;4.86;48.11;101653.41;5056067;28;20389;-76
2024/02/28 04:08:12;;;;;;;31.50;17.40;;;;;;;4.91;48.49;101665.78;5053559;28;20128;-77
2024/02/28 04:10:40;;;;;;;33.40;18.15;;;;;;;4.91;48.21;101664.91;5034524;28;20041;-77
2024/02/28 04:13:07;;;;;;;34.20;17.77;;;;;;;4.91;48.36;101659.47;5053187;28;20135;-77
2024/02/28 04:15:37;;;;;;;34.47;19.42;;;;;;;4.93;48.25;101671.13;5032595;28;20057;-77
2024/02/28 04:18:05;;;;;;;36.08;18.02;;;;;;;4.94;48.55;101670.19;5035209;28;20452;-77
2024/02/28 04:20:34;;;;;;;33.25;17.30;;;;;;;4.94;48.31;101672.88;5053431;28;20043;-77
2024/02/28 04:23:02;;;;;;;34.42;19.00;;;;;;;4.94;48.38;101667.47;5043461;28;20135;-77
2024/02/28 04:25:31;;;;;;;34.13;18.55;;;;;;;4.96;48.50;101662.84;5051980;28;20036;-77
2024/02/28 04:27:59;;;;;;;36.78;19.77;;;;;;;4.94;48.51;101664.75;5050876;28;20052;-77
2024/02/28 04:30:27;;;;;;;38.90;20.45;;;;;;;4.95;48.61;101660.22;5046732;28;20120;-77
2024/02/28 04:32:55;;;;;;;42.80;21.25;;;;;;;4.95;48.66;101658.38;5052900;28;20037;-77
2024/02/28 04:35:23;;;;;;;40.13;21.70;;;;;;;4.93;48.37;101652.16;5039944;28;20573;-77
2024/02/28 04:37:51;;;;;;;42.05;21.25;;;;;;;4.94;48.58;101651.19;5036418;28;20056;-77
2024/02/28 04:40:19;;;;;;;41.13;20.92;;;;;;;4.94;48.67;101659.31;5047092;28;20040;-77
2024/02/28 04:42:48;;;;;;;43.13;22.35;;;;;;;4.96;48.79;101656.53;5053965;28;20104;-77
2024/02/28 04:45:16;;;;;;;42.38;20.92;;;;;;;4.95;48.60;101652.94;5036328;28;20044;-77
2024/02/28 04:47:44;;;;;;;38.67;18.88;;;;;;;4.95;48.65;101661.09;5035724;28;20471;-76
2024/02/28 04:50:13;;;;;;;43.00;20.88;;;;;;;4.95;48.97;101669.22;5042648;28;20048;-77
2024/02/28 04:52:41;;;;;;;42.83;20.63;;;;;;;4.97;48.86;101674.53;5036415;28;20107;-77
2024/02/28 04:55:09;;;;;;;41.65;20.63;;;;;;;4.98;48.97;101673.59;5034280;28;20044;-77
2024/02/28 04:57:37;;;;;;;43.97;21.42;;;;;;;4.98;48.85;101671.75;5051633;28;20045;-77
2024/02/28 05:00:08;;;;;;;46.83;22.35;;;;;;;5.00;48.96;101685.25;5035285;28;20416;-77
2024/02/28 05:02:36;;;;;;;40.70;20.05;;;;;;;4.99;48.88;101684.38;5036812;28;20056;-77
2024/02/28 05:05:05;;;;;;;42.40;19.95;;;;;;;5.00;48.96;101688.84;5052738;28;20132;-77
2024/02/28 05:07:33;;;;;;;45.40;21.80;;;;;;;5.01;49.03;101695.16;5052271;28;20068;-77
2024/02/28 05:10:00;;;;;;;41.90;21.70;;;;;;;5.01;48.78;101695.16;5058282;28;20045;-76
2024/02/28 05:12:28;;;;;;;43.75;22.00;;;;;;;5.02;48.83;101699.63;5041379;28;20037;-77
2024/02/28 05:14:56;;;;;;;42.95;21.33;;;;;;;5.02;49.07;101694.19;5035565;28;20136;-77
2024/02/28 05:17:25;;;;;;;40.97;20.70;;;;;;;5.01;49.00;101692.44;5032901;28;20567;-77
2024/02/28 05:19:54;;;;;;;49.30;22.10;;;;;;;5.02;48.97;101695.06;5035045;28;20045;-76
2024/02/28 05:22:21;;;;;;;43.85;20.75;;;;;;;5.02;48.82;101691.47;5035557;28;20087;-77
2024/02/28 05:24:49;;;;;;;47.25;22.02;;;;;;;5.03;48.76;101698.66;5032609;28;20583;-76
2024/02/28 05:27:17;;;;;;;47.85;23.90;;;;;;;5.02;48.54;101695.06;5053328;28;20044;-77
2024/02/28 05:29:45;;;;;;;41.90;21.92;;;;;;;5.03;48.72;101704.09;5038483;28;20052;-77
2024/02/28 05:32:13;;;;;;;44.85;22.10;;;;;;;5.02;48.57;101703.22;5036585;28;20075;-77
2024/02/28 05:34:43;;;;;;;45.20;22.10;;;;;;;5.04;48.76;101705.84;5056611;28;20095;-77
2024/02/28 05:37:11;;;;;;;40.40;20.17;;;;;;;5.01;48.91;101711.44;5059366;28;20060;-77
2024/02/28 05:39:39;;;;;;;43.92;22.27;;;;;;;5.01;48.78;101715.03;5060711;28;20060;-77
2024/02/28 05:42:07;;;;;;;44.83;22.30;;;;;;;5.00;48.69;101710.53;5037935;28;20053;-77
2024/02/28 05:44:35;;;;;;;45.42;22.40;;;;;;;5.00;48.63;101718.69;5038662;28;20132;-77
2024/02/28 05:47:03;;;;;;;44.25;21.98;;;;;;;5.00;48.59;101724.09;5049381;28;20139;-77
2024/02/28 05:49:31;;;;;;;44.60;21.92;;;;;;;5.00;48.66;101728.66;5056304;28;20602;-77
2024/02/28 05:52:00;;;;;;;46.50;22.23;;;;;;;5.00;48.85;101731.38;5057884;28;20041;-77
2024/02/28 05:54:29;;;;;;;42.50;21.15;;;;;;;4.99;48.74;101735.03;5059740;28;20050;-77
2024/02/28 05:56:58;;;;;;;43.38;21.95;;;;;;;4.98;48.96;101733.28;5056348;28;20063;-77
2024/02/28 05:59:26;;;;;;;43.58;20.77;;;;;;;4.97;48.86;101732.38;5055786;28;20056;-78
2024/02/28 06:01:54;;;;;;;38.95;19.13;;;;;;;4.97;48.65;101726.97;5036120;28;20428;-77
2024/02/28 06:04:22;;;;;;;41.92;21.20;;;;;;;4.96;48.66;101738.81;5039389;28;20095;-77
2024/02/28 06:06:50;;;;;;;46.35;22.33;;;;;;;4.96;49.08;101740.63;5038739;28;20057;-78
2024/02/28 06:09:20;;;;;;;40.92;20.13;;;;;;;4.97;48.93;101743.25;5037767;28;20037;-77
2024/02/28 06:11:48;;;;;;;43.83;21.13;;;;;;;4.95;48.76;101747.88;5055865;28;20036;-78
2024/02/28 06:14:16;;;;;;;41.42;20.48;;;;;;;4.96;49.04;101749.66;5035056;28;20041;-78
2024/02/28 06:16:43;;;;;;;42.20;20.30;;;;;;;4.95;48.69;101742.47;5047595;28;20112;-78
2024/02/28 06:19:11;;;;;;;42.45;21.08;;;;;;;4.96;48.81;101757.78;5048936;28;20064;-78
2024/02/28 06:21:39;;;;;;;38.30;19.48;;;;;;;4.95;48.81;101752.44;5063488;28;20045;-79
2024/02/28 06:24:07;;;;;;;41.80;21.15;;;;;;;4.93;48.82;101757.94;5047069;28;20515;-76
2024/02/28 06:26:36;;;;;;;40.92;20.45;;;;;;;4.95;48.83;101758.75;5057708;28;20132;-77
2024/02/28 06:29:06;;;;;;;43.35;20.75;;;;;;;4.92;48.84;101773.31;5035248;28;20143;-77
2024/02/28 06:31:34;;;;;;;40.80;19.30;;;;;;;4.91;48.54;101767.97;5052429;28;20300;-77
2024/02/28 06:34:02;;;;;;;38.10;19.90;;;;;;;4.91;48.83;101771.56;5053224;28;20106;-76
2024/02/28 06:36:30;;;;;;;40.70;19.75;;;;;;;4.90;48.81;101774.34;5034232;28;20040;-77
2024/02/28 06:38:59;;;;;;;44.08;20.67;;;;;;;4.90;48.50;101771.63;5044950;28;20052;-76
2024/02/28 06:41:27;;;;;;;40.15;18.27;;;;;;;4.86;48.68;101780.91;5042395;28;20098;-77
2024/02/28 06:43:56;;;;;;;40.25;18.52;;;;;;;4.86;48.74;101779.06;5055845;28;20055;-77
2024/02/28 06:46:24;;;;;;;42.78;19.33;;;;;;;4.82;48.83;101777.44;5058694;28;20095;-77
2024/02/28 06:48:52;;;;;;;40.17;18.15;;;;;;;4.82;48.80;101790.13;5054904;28;20068;-77
2024/02/28 06:51:20;;;;;;;41.13;17.88;;;;;;;4.81;48.95;101793.78;5054724;28;20601;-77
2024/02/28 06:53:48;;;;;;;39.97;18.00;;;;;;;4.78;48.90;101792.13;5064732;28;20044;-77
2024/02/28 06:56:16;;;;;;;40.80;18.42;;;;;;;4.78;48.75;101788.53;5034904;28;20463;-77
2024/02/28 06:58:44;;;;;;;41.67;18.58;;;;;;;4.77;48.93;101787.66;5037122;28;20446;-77
2024/02/28 07:01:13;;;;;;;39.03;18.33;;;;;;;4.76;48.95;101794.03;5036534;28;20099;-77
2024/02/28 07:03:41;;;;;;;43.97;18.17;;;;;;;4.75;48.84;101797.69;5044684;28;20064;-77
2024/02/28 07:06:09;;;;;;;40.00;18.77;;;;;;;4.75;49.07;101802.22;5040012;28;20147;-77
2024/02/28 07:08:38;;;;;;;37.47;18.17;;;;;;;4.73;48.91;101810.44;5060764;28;20049;-77
2024/02/28 07:11:06;;;;;;;40.92;18.90;;;;;;;4.74;48.99;101819.44;5059390;28;20458;-77
2024/02/28 07:13:34;;;;;;;41.25;18.40;;;;;;;4.73;49.13;101817.69;5056216;28;20098;-76
2024/02/28 07:16:02;;;;;;;38.70;18.60;;;;;;;4.72;49.08;101824.94;5055192;28;20463;-76
2024/02/28 07:18:31;;;;;;;39.08;17.38;;;;;;;4.72;48.92;101829.47;5035736;28;20041;-77
2024/02/28 07:20:59;;;;;;;35.15;16.83;;;;;;;4.69;49.02;101827.81;5054144;28;20041;-77
2024/02/28 07:23:27;;;;;;;39.70;18.20;;;;;;;4.69;48.95;101838.66;5050529;28;20120;-77
2024/02/28 07:25:55;;;;;;;41.95;18.08;;;;;;;4.68;48.93;101830.59;5055935;28;20045;-77
2024/02/28 07:28:25;;;;;;;33.35;16.52;;;;;;;4.67;49.03;101827.00;5041131;28;20211;-77
2024/02/28 07:30:53;;;;;;;36.08;16.38;;;;;;;4.66;48.97;101827.94;5053011;28;20118;-77
2024/02/28 07:33:21;;;;;;;37.47;17.65;;;;;;;4.66;49.05;101827.94;5036181;28;20135;-77
2024/02/28 07:35:53;;;;;;;38.38;16.33;;;;;;;4.68;49.15;101827.88;5035302;28;20049;-77
2024/02/28 07:38:27;;;;;;;33.80;16.13;;;;;;;4.64;49.07;101820.81;5028688;28;20466;-77
2024/02/28 07:40:55;;;;;;;34.42;16.30;;;;;;;4.65;48.88;101822.59;5043737;28;20362;-77
2024/02/28 07:43:23;;;;;;;37.20;17.25;;;;;;;4.65;48.71;101823.47;5036440;28;20140;-77
2024/02/28 07:45:51;;;;;;;35.80;16.75;;;;;;;4.65;49.10;101820.75;5052445;28;20049;-77
2024/02/28 07:48:19;;;;;;;32.15;15.32;;;;;;;4.65;48.96;101822.59;5045760;28;20037;-77
2024/02/28 07:50:47;;;;;;;36.47;15.95;;;;;;;4.66;49.09;101832.50;5037387;28;20504;-74
2024/02/28 07:53:17;;;;;;;36.38;15.63;;;;;;;4.65;49.03;101826.19;5048799;28;20132;-78
2024/02/28 07:55:46;;;;;;;32.65;15.45;;;;;;;4.65;49.10;101828.00;5045210;28;20052;-78
2024/02/28 07:58:14;;;;;;;36.47;16.58;;;;;;;4.66;49.40;101825.22;5029588;28;20041;-77
2024/02/28 08:00:43;;;;;;;34.92;15.82;;;;;;;4.65;49.34;101833.44;5039204;28;20041;-77
2024/02/28 08:03:11;;;;;;;37.90;16.15;;;;;;;4.67;49.11;101834.25;5038570;28;20045;-77
2024/02/28 08:05:39;;;;;;;36.97;16.45;;;;;;;4.66;49.08;101838.78;5047569;28;20512;-77
2024/02/28 08:08:07;;;;;;;39.10;16.58;;;;;;;4.67;49.36;101845.09;5039395;28;20075;-78
2024/02/28 08:10:38;;;;;;;37.95;16.98;;;;;;;4.69;49.45;101845.91;5037768;28;20052;-78
2024/02/28 08:13:07;;;;;;;42.22;16.77;;;;;;;4.68;49.21;101844.16;5038187;28;20127;-78
2024/02/28 08:15:35;;;;;;;40.88;17.52;;;;;;;4.67;49.36;101847.81;5035737;28;20045;-77
2024/02/28 08:18:04;;;;;;;36.30;16.55;;;;;;;4.68;49.23;101849.56;5058037;28;20119;-78
2024/02/28 08:20:32;;;;;;;37.13;17.52;;;;;;;4.69;48.87;101856.75;5037963;28;20037;-77
2024/02/28 08:23:00;;;;;;;37.20;17.15;;;;;;;4.66;49.23;101851.47;5039570;28;20050;-78
2024/02/28 08:25:28;;;;;;;37.33;17.35;;;;;;;4.66;49.26;101849.63;5033511;28;20103;-78
2024/02/28 08:27:59;;;;;;;41.08;19.05;;;;;;;4.69;49.37;101857.63;5057278;28;20506;-78
2024/02/28 08:30:27;;;;;;;42.05;17.45;;;;;;;4.68;49.39;101861.28;5056588;28;20037;-78
2024/02/28 08:32:55;;;;;;;39.30;17.02;;;;;;;4.67;49.58;101859.53;5033066;28;20065;-78
2024/02/28 08:35:24;;;;;;;37.72;17.25;;;;;;;4.68;49.34;101864.00;5066463;28;20044;-78
2024/02/28 08:37:52;;;;;;;40.45;17.33;;;;;;;4.66;49.29;101851.47;5040929;28;20071;-78
2024/02/28 08:40:21;;;;;;;40.83;17.40;;;;;;;4.66;49.55;101854.19;5050548;28;20096;-78
2024/02/28 08:42:52;;;;;;;36.33;17.17;;;;;;;4.66;49.48;101856.88;5049637;28;20052;-78
2024/02/28 08:45:23;;;;;;;39.10;18.17;;;;;;;4.67;49.60;101867.66;5059418;28;21652;-77
2024/02/28 08:47:51;;;;;;;38.45;16.88;;;;;;;4.66;49.56;101862.31;5042864;28;20052;-78
2024/02/28 08:50:20;;;;;;;37.10;17.65;;;;;;;4.66;49.35;101852.34;5036091;28;20033;-78
2024/02/28 08:52:48;;;;;;;37.58;16.73;;;;;;;4.67;49.83;101864.97;5043471;28;20505;-77
2024/02/28 08:55:18;;;;;;;38.13;16.17;;;;;;;4.72;49.41;101871.03;5045618;28;20041;-77
2024/02/28 08:57:46;;;;;;;40.92;18.50;;;;;;;4.72;49.59;101881.88;5037793;28;20049;-78
2024/02/28 09:00:16;;;;;;;37.65;16.80;;;;;;;4.71;49.51;101880.16;5055648;28;20488;-78
2024/02/28 09:02:45;;;;;;;37.88;17.48;;;;;;;4.74;49.46;101885.41;5054785;28;20063;-77
2024/02/28 09:05:13;;;;;;;39.25;18.25;;;;;;;4.75;49.79;101889.00;5033764;28;20059;-80
2024/02/28 09:07:41;;;;;;;39.83;17.70;;;;;;;4.75;49.61;101898.03;5031300;28;20054;-78
2024/02/28 09:10:10;;;;;;;41.60;17.83;;;;;;;4.76;49.65;101894.34;5018533;28;20045;-78
2024/02/28 09:12:39;;;;;;;39.28;16.67;;;;;;;4.77;49.72;101895.25;5017762;28;20045;-78
2024/02/28 09:15:07;;;;;;;39.95;18.17;;;;;;;4.78;49.74;101892.47;5017784;28;20045;-78
2024/02/28 09:17:35;;;;;;;39.03;18.35;;;;;;;4.80;49.82;101895.97;5034826;28;20045;-78
2024/02/28 09:20:06;;;;;;;38.80;16.70;;;;;;;4.81;50.11;101889.59;5017869;28;20042;-78
2024/02/28 09:22:34;;;;;;;39.92;18.35;;;;;;;4.82;49.87;101890.47;5035156;28;20083;-78
2024/02/28 09:25:03;;;;;;;38.35;18.65;;;;;;;4.82;49.81;101891.34;5035015;28;20159;-78
2024/02/28 09:27:32;;;;;;;40.75;17.58;;;;;;;4.83;49.93;101887.69;5034036;28;20107;-78
2024/02/28 09:30:00;;;;;;;40.40;17.98;;;;;;;4.84;49.79;101877.72;5035101;28;20076;-78
2024/02/28 09:32:28;;;;;;;36.30;16.67;;;;;;;4.85;49.71;101891.22;5017774;28;20042;-78
2024/02/28 09:34:56;;;;;;;36.70;17.10;;;;;;;4.85;49.77;101883.06;5018340;28;20091;-78
2024/02/28 09:37:25;;;;;;;36.47;16.88;;;;;;;4.87;49.84;101889.31;5018087;28;20048;-78
2024/02/28 09:39:53;;;;;;;34.15;15.88;;;;;;;4.88;50.03;101887.50;5019094;28;20406;-78
2024/02/28 09:42:21;;;;;;;36.97;17.00;;;;;;;4.89;49.98;101892.81;5019369;28;20054;-78
2024/02/28 09:44:49;;;;;;;33.75;16.20;;;;;;;4.90;50.07;101885.56;5018696;28;20073;-78
2024/02/28 09:47:17;;;;;;;35.72;16.90;;;;;;;4.92;49.84;101891.81;5033850;28;20468;-77
2024/02/28 09:49:49;;;;;;;33.15;15.65;;;;;;;4.95;50.03;101890.78;5036450;28;20417;-78
2024/02/28 09:52:16;;;;;;;34.20;17.23;;;;;;;4.95;49.96;101888.06;5017758;28;20052;-78
2024/02/28 09:54:46;;;;;;;36.30;17.58;;;;;;;4.97;50.07;101881.59;5035188;28;20045;-78
2024/02/28 09:57:14;;;;;;;33.20;16.05;;;;;;;4.98;49.94;101877.06;5035050;28;20045;-77
2024/02/28 09:59:43;;;;;;;33.00;18.17;;;;;;;5.00;50.04;101880.56;5018177;28;20156;-77
2024/02/28 10:02:24;;;;;;;33.00;16.75;;;;;;;5.01;50.02;101882.34;5017985;28;20386;-78
2024/02/28 10:04:53;;;;;;;35.63;16.42;;;;;;;5.04;50.13;101863.22;5018598;28;20058;-78
2024/02/28 10:07:21;;;;;;;37.72;17.48;;;;;;;5.03;49.94;101856.91;5018267;28;20045;-78
2024/02/28 10:09:51;;;;;;;34.53;16.70;;;;;;;5.06;50.07;101854.03;5018590;28;20056;-78
2024/02/28 10:12:19;;;;;;;36.40;17.13;;;;;;;5.08;50.07;101862.09;5035292;28;20057;-78
2024/02/28 10:14:50;;;;;;;31.02;16.35;;;;;;;5.11;50.08;101862.84;5036819;28;20095;-77
2024/02/28 10:17:18;;;;;;;34.08;17.10;;;;;;;5.11;50.17;101861.97;5035713;28;20053;-77
2024/02/28 10:19:47;;;;;;;32.38;16.48;;;;;;;5.13;50.03;101862.78;5020051;28;20120;-77
2024/02/28 10:22:15;;;;;;;31.38;16.15;;;;;;;5.14;49.96;101865.38;5039517;28;20063;-77
2024/02/28 10:24:43;;;;;;;34.95;17.80;;;;;;;5.17;49.91;101864.34;5039062;28;20576;-78
2024/02/28 10:27:16;;;;;;;35.08;17.10;;;;;;;5.22;50.23;101870.47;5039168;28;20049;-78
2024/02/28 10:29:46;;;;;;;36.72;17.42;;;;;;;5.22;49.92;101865.03;5022133;28;20045;-78
2024/02/28 10:32:14;;;;;;;31.40;15.88;;;;;;;5.24;50.30;101868.56;5039547;28;20045;-78
2024/02/28 10:34:43;;;;;;;35.70;17.92;;;;;;;5.27;49.99;101874.72;5039892;28;20038;-78
2024/02/28 10:37:11;;;;;;;32.10;16.77;;;;;;;5.31;50.19;101872.72;5022286;28;20513;-77
2024/02/28 10:39:39;;;;;;;35.75;17.27;;;;;;;5.35;50.21;101876.19;5040559;28;20250;-78
2024/02/28 10:42:10;;;;;;;35.38;17.40;;;;;;;5.40;50.35;101874.09;5039691;28;20080;-77
2024/02/28 10:44:42;;;;;;;34.15;17.42;;;;;;;5.43;50.38;101873.97;5022819;28;20058;-78
2024/02/28 10:47:12;;;;;;;36.90;17.90;;;;;;;5.46;50.31;101876.53;5023552;28;20045;-78
2024/02/28 10:49:40;;;;;;;35.95;17.67;;;;;;;5.49;50.26;101877.25;5024652;28;20532;-78
2024/02/28 10:52:13;;;;;;;37.47;17.45;;;;;;;5.55;50.24;101874.22;5041661;28;20108;-78
2024/02/28 10:54:43;;;;;;;35.70;17.80;;;;;;;5.57;50.43;101875.03;5022012;28;20045;-78
2024/02/28 10:57:13;;;;;;;37.33;18.35;;;;;;;5.64;50.02;101878.31;5022673;28;20478;-78
2024/02/28 10:59:45;;;;;;;35.63;17.98;;;;;;;5.67;50.06;101873.59;5041037;28;20033;-77
2024/02/28 11:02:14;;;;;;;37.45;19.23;;;;;;;5.68;50.14;101875.38;5040066;28;20045;-79
2024/02/28 11:04:43;;;;;;;34.63;17.45;;;;;;;5.77;50.43;101875.84;5022885;28;20100;-77
2024/02/28 11:07:11;;;;;;;37.10;18.83;;;;;;;5.81;50.45;101883.75;5022787;28;20525;-78
2024/02/28 11:09:42;;;;;;;38.92;19.00;;;;;;;5.89;50.13;101883.34;5024951;28;20045;-78
2024/02/28 11:12:25;;;;;;;32.58;18.02;;;;;;;5.92;49.88;101881.38;5024058;28;20053;-78
2024/02/28 11:14:58;;;;;;;;;;;;;;;5.73;50.69;101890.53;5043888;28;20101;-78
2024/02/28 11:17:27;;;;;;;35.75;17.13;;;;;;;5.97;50.20;101884.72;5024343;28;20015;-78
2024/02/28 11:19:56;;;;;;;33.22;16.92;;;;;;;6.06;50.36;101873.38;5020545;28;20052;-77
2024/02/28 11:22:24;;;;;;;37.58;18.65;;;;;;;6.13;50.44;101876.63;5036862;28;20041;-78